Muskogee, OK

9:35 PM CDT on April 25, 2017 (GMT -0500)
West of Muskogee | | Change Station
Active Advisory: Severe Thunderstorm Watch, Flood Advisory Active Notice: Flood Advisory

Elev 722 ft 35.77 °N, 95.44 °W | Updated 3 minutes ago

Partly Cloudy
Partly Cloudy
71.8 °F
Feels Like 71.8 °F
N
0.0
Wind Variable Wind from SSW
Gusts 7.0 mph

Today
High -- | Low -- °F
--% Chance of Precip.
Yesterday
High -- | Low -- °F
Precip. -- in
Pressure 29.41 in
Visibility 10.0 miles
Clouds Clear
Dew Point 68 °F
Humidity 88%
Rainfall 0.00 in
Snow Depth Not available.
6:35 AM 8:03 PM
Waning Crescent, 0% visible
METAR KMKO 260153Z AUTO 16007KT 10SM CLR 23/18 A2942 RMK AO2 SLP957 T02280183
Pressure 29.41 in
Visibility 10.0 miles
Clouds Clear
Dew Point 68 °F
Humidity 88%
Rainfall 0.00 in
Snow Depth Not available.
6:35 AM 8:03 PM
Waning Crescent, 0% visible
METAR KMKO 260153Z AUTO 16007KT 10SM CLR 23/18 A2942 RMK AO2 SLP957 T02280183

Get Your Daily Forecast Email!

Thanks for signing up!

Be on the lookout for a verification email in your inbox.

You'll start receiving severe weather alerts in your inbox..

×

10-Day Weather Forecast

Almanac

Astronomy

Apr. 25, 2017 Rise Set
Actual Time
Civil Twilight
Nautical Twilight
Astronomical Twilight
Moon
Length of Visible Light
Length of Day
Tomorrow will be .
, % of the Moon is Illuminated

Today's Extremes

State Highs State Lows

Community

WunderPhotos

WunderBlog® & News

Nearby

Air Quality

  Air Quality AQ Index Pollutant
Not available.

Snow Depth

Station Depth Elevation

Earthquake Activity

City Distance Mag. Time & Date
Minimum magnitude displayed is 2.5.

Coastal Water Temperatures

Place Temperature

Stations

Nearby Weather Stations

Station Location Temp. Windchill Dew Point Humidity Wind Precip. Elev Updated Type
                   

Watches & Warnings

Severe Thunderstorm Watch
Issued: 9:24 PM CDT Apr. 25, 2017 – National Weather Service

Severe Thunderstorm Watch 159 remains in effect until 200 am CDT

OK
. Oklahoma counties included are

Cherokee Cleveland Craig
creek Delaware Garvin
Grady Hughes Lincoln
Logan McClain McIntosh
Mayes Muskogee Noble
Nowata Okfuskee Oklahoma
Okmulgee Osage Ottawa
Pawnee Payne Pontotoc
Pottawatomie Rogers Seminole
Tulsa Wagoner Washington


Flood Advisory
Issued: 8:26 PM CDT Apr. 25, 2017 – National Weather Service

The flood advisory continues for
the Arkansas River near Muskogee
* until Sunday morning, or until the advisory is cancelled.
* At 8:00 PM Tuesday, the stage was 27.4 feet.
* Action stage is 27.0 feet.
* Flood stage is 28.0 feet.
* Forecast... the river will rise to near 27.7 feet by Wednesday
evening, which is below flood stage.
* Impact... at 28.0 feet, minor lowland flooding occurs.


Lat... Lon 3583 9520 3552 9507 3547 9515 3559 9532 3583 9537